Time;durP1;ratioP1;P1;durP2;ratioP2;P2;SDS_P1;SDS_P2;PMS_P1;PMS_P2;Temp;Humidity;BMP_temperature;BMP_pressure;BME280_temperature;BME280_humidity;BME280_pressure;Samples;Min_cycle;Max_cycle;Signal;HPM_P1;HPM_P2
2022/07/21 00:00:44;;;;;;;12.90;11.70;;;26.80;85.40;;;;;;5040000;28;20468;-69
2022/07/21 00:03:10;;;;;;;13.03;11.50;;;26.80;86.90;;;;;;5042881;28;20510;-69
2022/07/21 00:05:36;;;;;;;13.43;12.10;;;26.80;87.40;;;;;;5052989;28;20212;-70
2022/07/21 00:08:02;;;;;;;14.27;12.90;;;26.60;88.60;;;;;;5040104;28;20224;-69
2022/07/21 00:10:28;;;;;;;14.37;12.83;;;26.50;89.00;;;;;;5043282;28;20221;-70
2022/07/21 00:12:54;;;;;;;15.70;13.97;;;26.30;90.20;;;;;;5065199;28;20243;-70
2022/07/21 00:15:22;;;;;;;13.90;12.47;;;26.30;90.70;;;;;;5069956;28;20619;-70
2022/07/21 00:17:47;;;;;;;13.93;12.50;;;26.10;91.10;;;;;;5052459;28;20449;-70
2022/07/21 00:20:16;;;;;;;17.30;13.90;;;26.10;91.60;;;;;;5060304;28;20905;-69
2022/07/21 00:22:42;;;;;;;13.20;11.80;;;26.00;91.80;;;;;;5069966;28;20219;-68
2022/07/21 00:25:09;;;;;;;13.70;12.00;;;26.00;92.00;;;;;;5056483;28;20438;-69
2022/07/21 00:27:35;;;;;;;13.83;12.43;;;25.90;92.00;;;;;;5078158;28;20485;-69
2022/07/21 00:30:01;;;;;;;13.77;12.37;;;25.90;92.00;;;;;;5069634;28;20489;-70
2022/07/21 00:32:27;;;;;;;14.13;12.47;;;25.90;92.40;;;;;;5052205;28;20960;-69
2022/07/21 00:34:52;;;;;;;12.87;11.70;;;25.90;92.80;;;;;;5032328;28;20453;-70
2022/07/21 00:37:18;;;;;;;13.97;12.50;;;25.90;92.90;;;;;;5038074;28;20249;-69
2022/07/21 00:39:44;;;;;;;14.53;12.63;;;25.90;92.70;;;;;;5070199;28;20223;-69
2022/07/21 00:42:23;;;;;;;15.90;13.17;;;25.90;92.60;;;;;;5030631;28;20574;-70
2022/07/21 00:44:49;;;;;;;13.10;11.80;;;25.90;93.00;;;;;;5033895;28;20218;-70
2022/07/21 00:47:18;;;;;;;13.30;11.90;;;25.80;93.30;;;;;;5051555;28;20441;-70
2022/07/21 00:49:44;;;;;;;17.67;12.20;;;25.80;93.40;;;;;;5056565;28;21059;-70
2022/07/21 00:52:10;;;;;;;13.20;11.87;;;25.80;93.50;;;;;;5038066;28;20446;-69
2022/07/21 00:54:36;;;;;;;13.23;11.93;;;25.70;93.70;;;;;;5070479;28;20967;-69
2022/07/21 00:57:02;;;;;;;11.70;10.50;;;25.60;93.70;;;;;;5029156;28;20303;-70
2022/07/21 00:59:30;;;;;;;11.93;10.57;;;25.60;94.00;;;;;;5051009;28;20260;-69
2022/07/21 01:01:56;;;;;;;12.00;11.00;;;25.60;94.30;;;;;;5052220;28;20964;-70
2022/07/21 01:04:21;;;;;;;12.50;11.17;;;25.50;94.40;;;;;;5055041;28;20495;-69
2022/07/21 01:06:47;;;;;;;10.73;9.63;;;25.40;94.90;;;;;;5052329;28;20268;-70
2022/07/21 01:09:13;;;;;;;12.03;10.73;;;25.30;95.00;;;;;;5055511;28;20225;-70
2022/07/21 01:11:40;;;;;;;9.87;8.93;;;25.30;95.20;;;;;;5056105;28;20513;-69
2022/07/21 01:14:06;;;;;;;10.40;9.30;;;25.20;95.30;;;;;;5034678;28;20450;-71
2022/07/21 01:16:32;;;;;;;9.10;8.17;;;25.20;95.30;;;;;;5063644;28;20458;-69
2022/07/21 01:18:58;;;;;;;9.43;8.53;;;25.20;95.40;;;;;;5063078;28;20457;-70
2022/07/21 01:21:36;;;;;;;11.37;10.17;;;25.20;95.30;;;;;;5040076;28;20224;-69
2022/07/21 01:24:03;;;;;;;9.63;8.60;;;25.20;95.70;;;;;;5059497;28;20267;-70
2022/07/21 01:26:30;;;;;;;15.93;9.80;;;25.00;95.90;;;;;;5054209;28;20811;-70
2022/07/21 01:28:57;;;;;;;9.63;8.73;;;25.00;96.00;;;;;;5054913;28;20552;-69
2022/07/21 01:31:23;;;;;;;10.77;9.73;;;24.90;96.10;;;;;;5059277;28;21018;-70
2022/07/21 01:33:50;;;;;;;10.50;9.50;;;24.80;96.40;;;;;;5053633;28;20514;-70
2022/07/21 01:36:16;;;;;;;9.20;8.40;;;24.80;96.50;;;;;;5042968;28;20452;-69
2022/07/21 01:41:29;;;;;;;9.83;8.83;;;24.80;96.40;;;;;;5051962;28;20230;-70
2022/07/21 01:44:05;;;;;;;10.67;9.67;;;24.80;96.50;;;;;;5054196;28;20498;-70
2022/07/21 01:46:34;;;;;;;11.57;10.37;;;24.90;96.30;;;;;;5057150;28;20453;-70
2022/07/21 01:49:00;;;;;;;9.90;9.00;;;24.90;96.00;;;;;;5059292;28;20460;-70
2022/07/21 01:51:25;;;;;;;9.97;9.07;;;24.80;96.20;;;;;;5054130;28;20449;-70
2022/07/21 01:53:52;;;;;;;10.10;9.10;;;24.80;96.20;;;;;;5033823;28;20226;-69
2022/07/21 01:56:23;;;;;;;10.27;9.27;;;24.80;95.90;;;;;;5070029;28;20237;-70
2022/07/21 01:58:50;;;;;;;10.80;9.70;;;24.90;95.80;;;;;;5060980;28;20472;-70
2022/07/21 02:01:17;;;;;;;9.80;8.80;;;24.90;95.90;;;;;;5034577;28;20482;-69
2022/07/21 02:03:44;;;;;;;11.73;8.50;;;24.80;96.10;;;;;;5060219;28;20445;-69
2022/07/21 02:06:10;;;;;;;9.53;8.63;;;24.80;95.90;;;;;;5041369;28;20474;-69
2022/07/21 02:08:36;;;;;;;10.80;9.33;;;24.80;96.00;;;;;;5031801;28;20819;-69
2022/07/21 02:11:03;;;;;;;13.40;8.87;;;24.80;95.60;;;;;;5049908;28;20463;-70
2022/07/21 02:13:29;;;;;;;9.47;8.33;;;24.90;95.30;;;;;;5059996;28;20306;-70
2022/07/21 02:15:55;;;;;;;9.33;8.40;;;24.90;95.40;;;;;;5072036;28;20551;-70
2022/07/21 02:18:20;;;;;;;8.60;7.77;;;24.80;95.40;;;;;;5062766;28;20310;-70
2022/07/21 02:20:54;;;;;;;8.77;7.97;;;24.90;95.10;;;;;;5072144;28;20551;-69
2022/07/21 02:23:20;;;;;;;8.00;7.30;;;24.80;95.10;;;;;;5067331;28;20246;-70
2022/07/21 02:25:45;;;;;;;10.53;8.37;;;24.80;95.20;;;;;;5040940;28;20488;-70
2022/07/21 02:28:11;;;;;;;7.70;7.00;;;24.80;94.90;;;;;;5053735;28;20742;-69
2022/07/21 02:30:37;;;;;;;8.57;7.77;;;24.80;94.80;;;;;;5054036;28;20291;-70
2022/07/21 02:33:03;;;;;;;8.50;7.67;;;24.80;94.60;;;;;;5071789;28;20309;-71
2022/07/21 02:35:29;;;;;;;8.90;8.00;;;24.80;94.40;;;;;;5072146;28;20218;-70
2022/07/21 02:37:55;;;;;;;9.23;7.30;;;24.80;94.60;;;;;;5071219;28;20445;-71
2022/07/21 02:40:20;;;;;;;7.70;6.90;;;24.80;95.20;;;;;;5052126;28;20749;-70
2022/07/21 02:42:47;;;;;;;8.10;7.30;;;24.60;94.80;;;;;;5070155;28;20272;-70
2022/07/21 02:45:12;;;;;;;7.80;6.87;;;24.60;95.00;;;;;;5052988;28;20210;-69
2022/07/21 02:48:01;;;;;;;7.77;6.90;;;24.50;94.90;;;;;;5065237;28;21015;-69
2022/07/21 02:50:30;;;;;;;7.17;6.50;;;24.50;95.00;;;;;;5059867;28;20217;-69
2022/07/21 02:53:05;;;;;;;7.13;6.43;;;24.40;95.30;;;;;;5079043;28;20453;-70
2022/07/21 02:55:31;;;;;;;10.83;6.90;;;24.30;95.20;;;;;;5074670;28;20448;-69
2022/07/21 02:58:17;;;;;;;6.43;5.70;;;24.20;95.30;;;;;;5058462;28;20453;-69
2022/07/21 03:01:04;;;;;;;6.87;6.20;;;24.00;95.40;;;;;;5071402;28;20306;-70
2022/07/21 03:03:34;;;;;;;7.30;6.60;;;23.90;95.60;;;;;;5070881;28;20476;-69
2022/07/21 03:06:00;;;;;;;8.10;7.30;;;23.70;95.70;;;;;;5068851;28;20460;-69
2022/07/21 03:08:27;;;;;;;6.70;6.10;;;23.60;95.80;;;;;;5086411;28;20464;-69
2022/07/21 03:10:53;;;;;;;7.20;6.60;;;23.50;96.00;;;;;;5052591;28;20442;-69
2022/07/21 03:13:19;;;;;;;6.23;5.63;;;23.40;95.80;;;;;;5042389;28;20468;-69
2022/07/21 03:15:45;;;;;;;9.07;6.10;;;23.40;95.80;;;;;;5070654;28;20245;-69
2022/07/21 03:18:10;;;;;;;6.90;6.13;;;23.40;95.70;;;;;;5052815;28;20222;-69
2022/07/21 03:20:38;;;;;;;6.67;6.07;;;23.30;95.80;;;;;;5070799;28;20210;-69
2022/07/21 03:23:05;;;;;;;7.87;7.07;;;23.20;95.70;;;;;;5053382;28;20223;-68
2022/07/21 03:25:30;;;;;;;7.10;6.40;;;23.20;96.00;;;;;;5036106;28;21031;-69
2022/07/21 03:27:56;;;;;;;7.33;6.47;;;23.10;95.90;;;;;;5050588;28;20472;-69
2022/07/21 03:30:22;;;;;;;6.77;6.13;;;23.10;95.90;;;;;;5034521;28;20211;-69
2022/07/21 03:32:49;;;;;;;7.73;6.90;;;23.10;95.90;;;;;;5084704;28;20234;-69
2022/07/21 03:35:16;;;;;;;7.33;6.67;;;23.10;96.00;;;;;;5053805;28;20483;-69
2022/07/21 03:37:56;;;;;;;8.37;6.77;;;23.00;95.90;;;;;;5065813;28;20902;-68
2022/07/21 03:40:25;;;;;;;6.97;6.37;;;23.00;96.00;;;;;;5034756;28;20302;-69
2022/07/21 03:42:54;;;;;;;7.17;6.50;;;22.90;96.10;;;;;;5057194;28;20505;-68
2022/07/21 03:45:20;;;;;;;7.23;6.63;;;23.00;96.10;;;;;;5072096;28;21053;-69
2022/07/21 03:47:46;;;;;;;7.27;6.50;;;23.00;96.00;;;;;;5074827;28;20551;-69
2022/07/21 03:50:12;;;;;;;7.57;6.87;;;22.90;96.20;;;;;;5076972;28;20540;-69
2022/07/21 03:52:38;;;;;;;6.50;5.90;;;22.90;96.00;;;;;;5070322;28;20229;-69
2022/07/21 03:55:07;;;;;;;7.17;6.50;;;22.80;96.00;;;;;;5035596;28;20445;-70
2022/07/21 03:57:40;;;;;;;8.17;7.40;;;22.80;96.10;;;;;;5059461;28;20456;-69
2022/07/21 04:00:09;;;;;;;8.73;7.20;;;22.70;96.30;;;;;;5051850;28;20449;-69
2022/07/21 04:02:42;;;;;;;8.93;7.33;;;22.60;96.40;;;;;;5070232;28;20460;-69
2022/07/21 04:05:10;;;;;;;7.83;7.00;;;22.60;96.40;;;;;;5048852;28;20449;-69
2022/07/21 04:07:36;;;;;;;6.93;6.33;;;22.70;96.40;;;;;;5055595;28;20995;-68
2022/07/21 04:10:03;;;;;;;8.07;7.27;;;22.60;96.50;;;;;;5055377;28;20455;-70
2022/07/21 04:12:29;;;;;;;6.83;6.13;;;22.70;96.30;;;;;;5087340;28;20463;-69
2022/07/21 04:14:55;;;;;;;7.90;6.20;;;22.70;96.10;;;;;;5036335;28;20450;-69
2022/07/21 04:17:22;;;;;;;7.20;6.60;;;22.80;96.40;;;;;;5052171;28;20248;-69
2022/07/21 04:19:48;;;;;;;7.30;6.43;;;22.80;96.00;;;;;;5052274;28;20464;-69
2022/07/21 04:22:14;;;;;;;11.37;7.43;;;22.90;95.80;;;;;;5034367;28;20540;-68
2022/07/21 04:24:39;;;;;;;7.93;7.00;;;23.00;95.60;;;;;;5062137;28;20531;-69
2022/07/21 04:27:05;;;;;;;8.63;6.40;;;23.10;95.40;;;;;;5035175;28;20222;-69
2022/07/21 04:29:31;;;;;;;7.60;6.67;;;23.10;95.20;;;;;;5044466;28;20234;-68
2022/07/21 04:31:57;;;;;;;8.93;6.73;;;23.10;95.20;;;;;;5069729;28;20780;-69
2022/07/21 04:34:22;;;;;;;7.67;7.00;;;23.20;95.00;;;;;;5070812;28;20213;-69
2022/07/21 04:36:48;;;;;;;7.70;6.93;;;23.20;94.90;;;;;;5057922;28;20218;-69
2022/07/21 04:39:14;;;;;;;7.50;6.57;;;23.20;95.10;;;;;;5054647;28;20295;-68
2022/07/21 04:41:39;;;;;;;8.27;6.77;;;23.20;95.10;;;;;;5048850;28;20229;-69
2022/07/21 04:44:05;;;;;;;7.50;6.80;;;23.10;95.00;;;;;;5049173;28;20214;-69
2022/07/21 04:46:30;;;;;;;9.83;7.27;;;23.20;95.00;;;;;;5051747;28;20709;-69
2022/07/21 04:48:56;;;;;;;7.10;6.40;;;23.20;94.80;;;;;;5034422;28;20599;-69
2022/07/21 04:51:22;;;;;;;6.70;6.10;;;23.20;94.80;;;;;;5051915;28;20226;-69
2022/07/21 04:53:47;;;;;;;8.30;7.50;;;23.20;94.60;;;;;;5048254;28;20350;-68
2022/07/21 04:56:13;;;;;;;7.83;6.50;;;23.30;94.60;;;;;;5069470;28;20211;-69
2022/07/21 04:58:39;;;;;;;8.00;7.30;;;23.30;94.50;;;;;;5067771;28;20203;-68
2022/07/21 05:01:05;;;;;;;8.30;7.50;;;23.20;94.70;;;;;;5031875;28;20235;-69
2022/07/21 05:03:30;;;;;;;7.77;7.07;;;23.20;94.90;;;;;;5058155;28;20797;-69
2022/07/21 05:05:56;;;;;;;8.27;7.60;;;23.10;95.20;;;;;;5074610;28;20210;-70
2022/07/21 05:08:22;;;;;;;7.83;6.90;;;23.00;95.20;;;;;;5052154;28;20725;-69
2022/07/21 05:10:47;;;;;;;9.90;7.67;;;23.00;95.60;;;;;;5052095;28;20210;-69
2022/07/21 05:13:13;;;;;;;7.50;6.70;;;23.00;95.40;;;;;;5068484;28;20616;-67
2022/07/21 05:15:38;;;;;;;8.00;7.30;;;22.90;95.60;;;;;;5050714;28;20301;-69
2022/07/21 05:18:08;;;;;;;7.87;6.87;;;22.80;95.80;;;;;;5034492;28;20226;-69
2022/07/21 05:20:33;;;;;;;7.77;7.10;;;22.70;96.00;;;;;;5052805;28;20218;-69
2022/07/21 05:22:59;;;;;;;8.30;7.50;;;22.70;96.00;;;;;;5064517;28;20440;-69
2022/07/21 05:25:24;;;;;;;8.27;7.47;;;22.80;96.00;;;;;;5086717;28;20219;-69
2022/07/21 05:27:50;;;;;;;7.33;6.70;;;22.80;96.10;;;;;;5026949;28;20227;-69
2022/07/21 05:30:16;;;;;;;7.97;7.20;;;22.80;96.20;;;;;;5040353;28;20265;-69
2022/07/21 05:32:41;;;;;;;12.00;7.50;;;22.70;96.40;;;;;;5051233;28;20336;-69
2022/07/21 05:35:10;;;;;;;7.60;6.90;;;22.70;96.10;;;;;;5067254;28;20298;-69
2022/07/21 05:37:38;;;;;;;8.43;7.63;;;22.70;96.50;;;;;;5078215;28;20702;-67
2022/07/21 05:40:04;;;;;;;8.03;7.17;;;22.70;96.50;;;;;;5031838;28;20515;-69
2022/07/21 05:42:30;;;;;;;8.07;7.30;;;22.70;96.60;;;;;;5023706;28;20449;-68
2022/07/21 05:44:56;;;;;;;14.03;7.00;;;22.70;96.80;;;;;;5045219;28;20528;-69
2022/07/21 05:47:22;;;;;;;7.00;6.30;;;22.80;96.40;;;;;;5026850;28;20248;-69
2022/07/21 05:49:47;;;;;;;7.70;6.97;;;22.80;96.90;;;;;;5055138;28;20214;-69
2022/07/21 05:52:13;;;;;;;7.90;7.10;;;22.90;96.50;;;;;;5035131;28;20260;-69
2022/07/21 05:54:39;;;;;;;8.07;7.37;;;22.90;97.10;;;;;;5043418;28;20285;-69
2022/07/21 05:57:04;;;;;;;6.53;5.80;;;22.90;96.70;;;;;;5050544;28;20210;-69
2022/07/21 05:59:30;;;;;;;7.63;6.90;;;22.90;96.70;;;;;;5060168;28;20638;-70
2022/07/21 06:01:56;;;;;;;8.40;6.70;;;23.00;96.50;;;;;;5057427;28;20309;-69
2022/07/21 06:04:21;;;;;;;7.93;7.13;;;23.00;96.60;;;;;;5065547;28;20662;-69
2022/07/21 06:06:47;;;;;;;7.20;6.50;;;23.10;96.60;;;;;;5044359;28;20219;-69
2022/07/21 06:09:13;;;;;;;7.37;6.67;;;23.00;96.70;;;;;;5044841;28;20227;-69
2022/07/21 06:11:39;;;;;;;6.83;6.23;;;23.00;96.80;;;;;;5076461;28;20216;-69
2022/07/21 06:14:05;;;;;;;7.60;6.90;;;23.00;96.60;;;;;;5063869;28;20545;-69
2022/07/21 06:16:31;;;;;;;7.00;6.40;;;23.10;96.60;;;;;;5028791;28;20249;-71
2022/07/21 06:18:57;;;;;;;8.30;7.47;;;23.10;96.60;;;;;;5035040;28;20247;-69
2022/07/21 06:21:23;;;;;;;7.50;6.80;;;23.10;96.70;;;;;;5042078;28;20485;-70
2022/07/21 06:23:49;;;;;;;7.77;7.07;;;23.10;96.70;;;;;;5045308;28;20510;-69
2022/07/21 06:26:15;;;;;;;7.03;6.33;;;23.20;97.10;;;;;;5063194;28;20218;-70
2022/07/21 06:28:41;;;;;;;7.70;6.33;;;23.20;97.10;;;;;;5053068;28;20241;-69
2022/07/21 06:31:07;;;;;;;7.67;7.00;;;23.20;96.90;;;;;;5052660;28;20215;-71
2022/07/21 06:33:32;;;;;;;7.33;6.60;;;23.20;97.10;;;;;;5073637;28;20449;-69
2022/07/21 06:35:58;;;;;;;7.87;7.13;;;23.20;97.10;;;;;;5051766;28;20306;-69
2022/07/21 06:38:24;;;;;;;8.23;6.30;;;23.20;97.10;;;;;;5073055;28;20231;-69
2022/07/21 06:40:49;;;;;;;7.10;6.50;;;23.20;96.90;;;;;;5035721;28;20219;-69
2022/07/21 06:43:15;;;;;;;7.77;7.00;;;23.20;96.80;;;;;;5068191;28;20223;-69
2022/07/21 06:45:41;;;;;;;9.30;7.40;;;23.30;96.90;;;;;;5054992;28;20305;-69
2022/07/21 06:48:09;;;;;;;7.10;6.40;;;23.30;97.00;;;;;;5052108;28;20228;-69
2022/07/21 06:50:36;;;;;;;7.10;6.40;;;23.30;96.80;;;;;;5067144;28;20242;-69
2022/07/21 06:53:02;;;;;;;7.47;6.53;;;23.30;97.10;;;;;;5026080;28;20501;-70
2022/07/21 06:55:28;;;;;;;7.07;6.20;;;23.30;96.80;;;;;;5034855;28;20457;-69
2022/07/21 06:57:54;;;;;;;9.43;6.40;;;23.30;96.90;;;;;;5045778;28;20460;-69
2022/07/21 07:00:20;;;;;;;7.97;7.27;;;23.40;96.60;;;;;;5043343;28;20230;-69
2022/07/21 07:02:45;;;;;;;7.43;6.53;;;23.40;96.60;;;;;;5040334;28;20223;-67
2022/07/21 07:05:12;;;;;;;7.77;6.90;;;23.50;97.00;;;;;;5033197;28;20224;-70
2022/07/21 07:07:38;;;;;;;6.97;6.30;;;23.50;96.90;;;;;;5037753;28;20269;-67
2022/07/21 07:10:04;;;;;;;9.50;6.90;;;23.50;97.10;;;;;;5056285;28;20524;-69
2022/07/21 07:12:30;;;;;;;6.97;6.27;;;23.50;96.90;;;;;;5047230;28;21069;-69
2022/07/21 07:14:56;;;;;;;10.10;7.63;;;23.50;97.00;;;;;;5043662;28;20450;-70
2022/07/21 07:17:21;;;;;;;7.40;6.70;;;23.50;96.90;;;;;;5037486;28;20222;-70
2022/07/21 07:19:48;;;;;;;8.40;7.60;;;23.50;97.00;;;;;;5031563;28;20277;-70
2022/07/21 07:22:14;;;;;;;7.67;6.87;;;23.50;97.20;;;;;;5060760;28;20211;-69
2022/07/21 07:24:40;;;;;;;7.37;6.70;;;23.50;97.40;;;;;;5039230;28;20498;-69
2022/07/21 07:27:06;;;;;;;7.87;7.17;;;23.50;97.30;;;;;;5029877;28;20802;-69
2022/07/21 07:29:32;;;;;;;7.70;6.97;;;23.50;97.50;;;;;;5054868;28;20453;-69
2022/07/21 07:31:59;;;;;;;7.13;6.43;;;23.60;97.40;;;;;;5042242;28;20223;-69
2022/07/21 07:34:24;;;;;;;7.87;6.50;;;23.60;97.30;;;;;;5047953;28;20253;-69
2022/07/21 07:36:50;;;;;;;8.67;7.77;;;23.70;97.50;;;;;;5028748;28;20446;-69
2022/07/21 07:39:16;;;;;;;7.00;6.37;;;23.70;97.50;;;;;;5045555;28;20240;-69
2022/07/21 07:41:43;;;;;;;8.53;6.87;;;23.70;97.40;;;;;;5050783;28;20210;-69
2022/07/21 07:44:09;;;;;;;7.60;6.90;;;23.80;97.40;;;;;;5050560;28;20218;-69
2022/07/21 07:46:35;;;;;;;6.53;5.90;;;23.80;97.20;;;;;;5052202;28;20464;-69
2022/07/21 07:49:00;;;;;;;8.50;7.00;;;23.90;97.20;;;;;;5023302;28;20453;-70
2022/07/21 07:51:26;;;;;;;7.70;7.00;;;24.00;97.20;;;;;;5042075;28;20245;-70
2022/07/21 07:53:52;;;;;;;7.10;6.40;;;24.00;97.10;;;;;;5029626;28;20250;-70
2022/07/21 07:56:18;;;;;;;8.20;7.23;;;24.00;97.00;;;;;;5028168;28;20297;-70
2022/07/21 07:58:44;;;;;;;6.77;5.90;;;24.00;97.10;;;;;;5044123;28;20764;-70
2022/07/21 08:01:09;;;;;;;7.23;6.63;;;24.10;97.00;;;;;;5044560;28;20314;-70
2022/07/21 08:03:35;;;;;;;6.80;6.20;;;24.10;96.90;;;;;;5031650;28;20268;-70
2022/07/21 08:06:06;;;;;;;11.40;6.90;;;24.10;96.80;;;;;;5037482;28;20249;-70
2022/07/21 08:08:33;;;;;;;6.77;6.07;;;24.10;96.70;;;;;;5059367;28;20477;-69
2022/07/21 08:10:59;;;;;;;6.47;5.50;;;24.20;96.70;;;;;;5039880;28;20458;-70
2022/07/21 08:13:25;;;;;;;6.77;5.97;;;24.20;96.70;;;;;;5039203;28;20494;-70
2022/07/21 08:15:51;;;;;;;6.10;5.57;;;24.20;96.50;;;;;;5026006;28;20460;-69
2022/07/21 08:18:18;;;;;;;8.90;6.43;;;24.30;96.70;;;;;;5020890;28;20466;-70
2022/07/21 08:20:45;;;;;;;6.93;6.20;;;24.30;96.70;;;;;;5056249;28;20472;-69
2022/07/21 08:23:11;;;;;;;7.17;6.00;;;24.30;96.60;;;;;;5045340;28;20517;-69
2022/07/21 08:25:37;;;;;;;6.10;5.60;;;24.30;96.50;;;;;;5063539;28;20460;-70
2022/07/21 08:28:03;;;;;;;5.30;4.90;;;24.30;96.20;;;;;;5047942;28;20474;-69
2022/07/21 08:30:29;;;;;;;5.97;5.37;;;24.40;96.30;;;;;;5066298;28;20225;-70
2022/07/21 08:32:54;;;;;;;5.53;5.03;;;24.50;96.00;;;;;;5047649;28;20453;-69
2022/07/21 08:35:20;;;;;;;6.63;5.90;;;24.50;95.90;;;;;;5022586;28;20234;-69
2022/07/21 08:37:55;;;;;;;6.30;5.70;;;24.50;95.40;;;;;;5044594;28;20245;-69
2022/07/21 08:40:24;;;;;;;6.07;5.00;;;24.50;95.20;;;;;;5017745;28;20223;-69
2022/07/21 08:42:51;;;;;;;4.53;4.23;;;24.50;94.80;;;;;;5041779;28;20468;-69
2022/07/21 08:45:17;;;;;;;5.73;5.30;;;24.60;94.80;;;;;;5046113;28;20468;-70
2022/07/21 08:47:42;;;;;;;6.03;5.43;;;24.60;94.50;;;;;;5041796;28;21262;-70
2022/07/21 08:50:09;;;;;;;6.03;5.53;;;24.60;94.20;;;;;;5043742;28;20235;-70
2022/07/21 08:52:35;;;;;;;5.10;4.60;;;24.70;94.40;;;;;;5063012;28;20214;-70
2022/07/21 08:55:01;;;;;;;5.10;4.60;;;24.80;94.20;;;;;;5045496;28;20467;-70
2022/07/21 08:57:27;;;;;;;7.07;5.50;;;24.80;93.80;;;;;;5063439;28;20285;-70
2022/07/21 08:59:53;;;;;;;4.60;4.30;;;24.90;93.90;;;;;;5046188;28;20453;-68
2022/07/21 09:02:33;;;;;;;5.20;4.70;;;24.90;93.70;;;;;;5072508;28;20210;-69
2022/07/21 09:04:59;;;;;;;5.50;4.97;;;24.90;92.80;;;;;;5038366;28;20317;-69
2022/07/21 09:07:26;;;;;;;5.17;4.77;;;25.00;92.80;;;;;;5021465;28;20460;-70
2022/07/21 09:10:00;;;;;;;5.23;4.80;;;25.00;93.00;;;;;;5064090;28;20925;-69
2022/07/21 09:12:26;;;;;;;6.03;5.43;;;25.10;93.00;;;;;;5049743;28;20463;-70
2022/07/21 09:15:11;;;;;;;5.67;5.00;;;25.20;93.10;;;;;;5042198;28;20449;-70
2022/07/21 09:17:37;;;;;;;5.37;4.97;;;25.20;92.90;;;;;;5032715;28;20465;-68
2022/07/21 09:20:03;;;;;;;5.67;5.20;;;25.30;92.90;;;;;;5055150;28;20459;-70
2022/07/21 09:22:29;;;;;;;5.60;5.10;;;25.40;92.90;;;;;;5064132;28;20265;-70
2022/07/21 09:24:54;;;;;;;5.20;4.77;;;25.50;92.90;;;;;;5045247;28;20968;-71
2022/07/21 09:27:22;;;;;;;7.63;5.33;;;25.50;92.50;;;;;;5063347;28;20239;-70
2022/07/21 09:29:59;;;;;;;5.80;5.27;;;25.50;92.30;;;;;;5040160;28;20691;-70
2022/07/21 09:32:29;;;;;;;5.30;4.90;;;25.60;92.20;;;;;;5027019;28;20441;-70
2022/07/21 09:35:04;;;;;;;5.20;4.73;;;25.60;92.00;;;;;;5048702;28;20461;-70
2022/07/21 09:37:29;;;;;;;7.70;4.17;;;25.70;92.10;;;;;;5063189;28;20466;-70
2022/07/21 09:40:06;;;;;;;5.33;4.83;;;25.80;91.90;;;;;;5039924;28;20461;-70
2022/07/21 09:42:57;;;;;;;4.20;3.90;;;25.90;92.10;;;;;;5049603;28;20770;-70
2022/07/21 09:45:22;;;;;;;4.67;4.37;;;26.10;91.90;;;;;;5025805;28;20453;-70
2022/07/21 09:47:48;;;;;;;4.70;4.30;;;26.30;91.80;;;;;;5042331;28;20478;-69
2022/07/21 09:50:16;;;;;;;4.63;4.23;;;26.30;91.40;;;;;;5025681;28;20690;-70
2022/07/21 09:52:44;;;;;;;4.93;4.60;;;26.30;91.00;;;;;;5033355;28;20217;-70
2022/07/21 09:55:12;;;;;;;5.27;4.77;;;26.30;90.50;;;;;;5043131;28;20492;-71
2022/07/21 09:57:39;;;;;;;4.60;4.20;;;26.40;90.40;;;;;;5046939;28;20549;-69
2022/07/21 10:00:08;;;;;;;4.53;4.13;;;26.40;89.50;;;;;;5048664;28;20468;-70
2022/07/21 10:02:34;;;;;;;4.67;4.13;;;26.30;89.90;;;;;;5039819;28;20446;-70
2022/07/21 10:05:04;;;;;;;4.33;4.00;;;26.50;89.10;;;;;;5031279;28;20480;-70
2022/07/21 10:07:30;;;;;;;5.40;4.90;;;26.50;88.60;;;;;;5030340;28;20465;-70
2022/07/21 10:09:57;;;;;;;4.57;4.10;;;26.60;89.00;;;;;;5040791;28;20546;-70
2022/07/21 10:12:24;;;;;;;4.63;4.33;;;26.70;88.60;;;;;;5024298;28;21001;-70
2022/07/21 10:14:50;;;;;;;4.90;4.50;;;26.80;88.50;;;;;;5040799;28;20541;-69
2022/07/21 10:17:19;;;;;;;4.70;4.00;;;26.90;88.70;;;;;;5055598;28;20511;-70
2022/07/21 10:20:07;;;;;;;7.13;6.43;;;27.00;88.70;;;;;;5048810;28;20976;-71
2022/07/21 10:22:57;;;;;;;5.17;4.67;;;27.10;88.00;;;;;;5047850;28;20454;-70
2022/07/21 10:25:24;;;;;;;4.80;4.40;;;27.10;87.20;;;;;;5045742;28;20215;-70
2022/07/21 10:28:14;;;;;;;5.43;4.97;;;27.20;87.80;;;;;;5046335;28;20514;-71
2022/07/21 10:30:45;;;;;;;4.73;4.33;;;27.30;87.80;;;;;;5047539;28;20213;-70
2022/07/21 10:33:12;;;;;;;5.17;4.77;;;27.40;87.50;;;;;;5060058;28;20687;-70
2022/07/21 10:35:49;;;;;;;5.15;4.65;;;27.50;85.90;;;;;;5039531;28;20234;-70
2022/07/21 10:38:30;;;;;;;4.67;4.37;;;27.50;84.70;;;;;;5046105;28;20225;-71
2022/07/21 10:40:57;;;;;;;5.87;4.30;;;27.50;85.20;;;;;;5031435;28;20217;-71
2022/07/21 10:43:26;;;;;;;3.83;3.53;;;27.40;83.40;;;;;;5043073;28;20223;-70
2022/07/21 10:45:53;;;;;;;4.43;4.13;;;27.50;81.90;;;;;;5045214;28;20712;-70
2022/07/21 10:48:37;;;;;;;5.23;4.67;;;27.50;82.60;;;;;;5012208;28;20297;-70
2022/07/21 10:51:24;;;;;;;5.70;5.10;;;27.70;83.40;;;;;;5045204;28;20219;-70
2022/07/21 10:54:16;;;;;;;5.17;4.77;;;27.80;82.20;;;;;;5024800;28;20706;-70
2022/07/21 10:56:41;;;;;;;4.70;4.40;;;27.80;81.00;;;;;;5036337;28;20224;-71
2022/07/21 10:59:07;;;;;;;5.53;5.13;;;27.90;80.00;;;;;;5029276;28;20228;-70
2022/07/21 11:01:35;;;;;;;5.55;5.05;;;28.00;79.30;;;;;;5044250;28;20232;-70
2022/07/21 11:04:09;;;;;;;5.00;4.68;;;28.00;79.00;;;;;;5024166;28;20336;-70
2022/07/21 11:06:37;;;;;;;6.25;5.65;;;28.20;79.10;;;;;;5038956;28;20307;-71
2022/07/21 11:09:03;;;;;;;5.40;4.90;;;28.40;78.80;;;;;;5034203;28;20229;-70
2022/07/21 11:11:53;;;;;;;8.85;7.45;;;28.40;77.70;;;;;;5045738;28;20684;-70
2022/07/21 11:14:20;;;;;;;6.10;5.45;;;28.50;78.10;;;;;;5028441;28;20252;-70
2022/07/21 11:16:56;;;;;;;7.00;6.30;;;28.50;76.40;;;;;;5042225;28;20366;-71
2022/07/21 11:19:45;;;;;;;6.50;5.72;;;28.60;75.30;;;;;;5016545;28;20231;-70
2022/07/21 11:22:22;;;;;;;6.68;6.10;;;28.70;76.10;;;;;;5039140;28;20337;-70
2022/07/21 11:24:51;;;;;;;7.53;5.72;;;28.90;75.00;;;;;;5031681;28;20358;-70
2022/07/21 11:27:19;;;;;;;7.07;6.38;;;29.00;74.30;;;;;;5040944;28;20228;-70
2022/07/21 11:29:47;;;;;;;7.30;6.53;;;29.10;72.80;;;;;;5043580;28;20252;-71
2022/07/21 11:32:16;;;;;;;7.35;6.63;;;29.10;69.70;;;;;;5041797;28;20242;-71
2022/07/21 11:34:45;;;;;;;6.65;6.15;;;29.20;70.20;;;;;;5046266;28;20610;-70
2022/07/21 11:37:13;;;;;;;6.25;5.80;;;29.30;70.20;;;;;;5046310;28;20233;-70
2022/07/21 11:39:39;;;;;;;7.68;6.88;;;29.40;71.20;;;;;;5034843;28;20225;-71
2022/07/21 11:42:07;;;;;;;7.57;6.97;;;29.40;70.90;;;;;;5045090;28;20253;-70
2022/07/21 11:44:34;;;;;;;7.38;6.78;;;29.30;70.70;;;;;;5060217;28;20263;-71
2022/07/21 11:47:02;;;;;;;7.30;6.60;;;29.30;70.80;;;;;;5062729;28;20233;-71
2022/07/21 11:49:28;;;;;;;6.65;6.05;;;29.30;70.90;;;;;;5060062;28;20239;-71
2022/07/21 11:51:57;;;;;;;7.88;7.07;;;29.40;70.10;;;;;;5055561;28;20223;-71
2022/07/21 11:54:25;;;;;;;7.68;6.97;;;29.40;70.40;;;;;;5046690;28;20338;-71
2022/07/21 11:56:52;;;;;;;6.68;6.07;;;29.50;70.10;;;;;;5051057;28;20225;-71
2022/07/21 11:59:18;;;;;;;8.65;6.90;;;29.60;70.00;;;;;;5021821;28;20246;-71
2022/07/21 12:01:49;;;;;;;7.18;6.57;;;29.70;69.70;;;;;;5044944;28;20722;-70
2022/07/21 12:04:25;;;;;;;7.15;6.53;;;29.70;69.10;;;;;;5060920;28;20249;-70
2022/07/21 12:06:51;;;;;;;8.18;7.45;;;29.80;67.70;;;;;;5035207;28;20253;-71
2022/07/21 12:09:17;;;;;;;6.28;5.88;;;29.90;67.00;;;;;;5043551;28;20771;-71
2022/07/21 12:11:43;;;;;;;7.63;6.47;;;29.90;66.30;;;;;;5037558;28;20292;-70
2022/07/21 12:14:09;;;;;;;7.30;6.70;;;30.00;66.80;;;;;;5032228;28;20899;-70
2022/07/21 12:16:50;;;;;;;7.90;7.20;;;29.90;65.90;;;;;;5042570;28;20493;-70
2022/07/21 12:19:17;;;;;;;8.00;6.97;;;29.80;66.80;;;;;;5042305;28;20235;-72
2022/07/21 12:21:50;;;;;;;7.18;6.57;;;29.90;67.30;;;;;;5052666;28;20273;-70
2022/07/21 12:24:18;;;;;;;7.45;6.78;;;30.10;66.80;;;;;;5042530;28;20239;-71
2022/07/21 12:26:44;;;;;;;7.07;6.47;;;30.10;65.50;;;;;;5038519;28;20233;-70
2022/07/21 12:29:10;;;;;;;7.60;6.90;;;30.20;66.90;;;;;;5040944;28;20327;-71
2022/07/21 12:31:37;;;;;;;7.70;7.10;;;30.20;64.50;;;;;;5063737;28;20318;-69
2022/07/21 12:34:15;;;;;;;6.55;5.97;;;30.20;64.10;;;;;;5041323;28;20228;-70
2022/07/21 12:36:42;;;;;;;7.50;6.88;;;30.10;65.00;;;;;;5039159;28;20242;-70
2022/07/21 12:42:26;;;;;;;8.00;7.20;;;30.10;65.60;;;;;;5057868;28;20238;-70
2022/07/21 12:44:52;;;;;;;9.85;7.95;;;30.00;66.40;;;;;;5057292;28;20231;-70
2022/07/21 12:47:20;;;;;;;9.18;7.07;;;30.00;66.80;;;;;;5062917;28;20661;-71
2022/07/21 12:50:05;;;;;;;7.50;6.90;;;30.00;66.70;;;;;;5041420;28;20741;-70
2022/07/21 12:52:31;;;;;;;9.13;6.65;;;30.00;65.00;;;;;;5049016;28;20238;-70